Time;durP1;ratioP1;P1;durP2;ratioP2;P2;SDS_P1;SDS_P2;PMS_P1;PMS_P2;Temp;Humidity;BMP_temperature;BMP_pressure;BME280_temperature;BME280_humidity;BME280_pressure;Samples;Min_cycle;Max_cycle;Signal;HPM_P1;HPM_P2
2023/06/02 00:00:39;;;;;;;;;;;;;;;16.36;52.46;96327.81;5107814;28;20242;-77
2023/06/02 00:03:05;;;;;;;;;;;;;;;16.33;52.02;96326.47;5107473;28;20033;-77
2023/06/02 00:05:32;;;;;;;;;;;;;;;16.30;52.94;96328.84;5107166;28;19947;-77
2023/06/02 00:07:58;;;;;;;;;;;;;;;16.28;53.20;96331.75;5107432;28;19955;-77
2023/06/02 00:10:24;;;;;;;;;;;;;;;16.24;54.00;96334.09;5107778;28;19993;-77
2023/06/02 00:12:50;;;;;;;;;;;;;;;16.25;54.30;96348.09;5107184;28;19960;-77
2023/06/02 00:15:16;;;;;;;;;;;;;;;16.24;53.73;96335.94;5107247;28;19998;-73
2023/06/02 00:17:42;;;;;;;;;;;;;;;16.22;53.86;96328.25;5089392;28;19959;-73
2023/06/02 00:20:09;;;;;;;;;;;;;;;16.23;53.05;96339.63;5107468;28;19954;-78
2023/06/02 00:22:38;;;;;;;;;;;;;;;16.21;54.22;96334.63;5107277;28;19964;-78
2023/06/02 00:25:04;;;;;;;;;;;;;;;16.20;54.44;96333.00;5106834;28;19940;-78
2023/06/02 00:27:30;;;;;;;;;;;;;;;16.20;54.04;96340.16;5106901;28;19956;-78
2023/06/02 00:29:56;;;;;;;;;;;;;;;16.20;54.87;96342.81;5106876;28;19949;-78
2023/06/02 00:32:22;;;;;;;;;;;;;;;16.21;53.98;96337.25;5106800;28;20019;-78
2023/06/02 00:34:48;;;;;;;;;;;;;;;16.21;54.05;96342.56;5106863;28;19956;-73
2023/06/02 00:37:14;;;;;;;;;;;;;;;16.21;53.95;96339.09;5106868;28;19956;-88
2023/06/02 00:39:40;;;;;;;;;;;;;;;16.18;52.53;96339.63;5088781;28;20051;-88
2023/06/02 00:42:06;;;;;;;;;;;;;;;16.15;53.12;96334.84;5106767;28;19965;-89
2023/06/02 00:44:32;;;;;;;;;;;;;;;16.12;53.45;96332.69;5106930;28;19960;-88
2023/06/02 00:46:58;;;;;;;;;;;;;;;16.08;53.84;96334.25;5106904;28;19959;-86
2023/06/02 00:49:24;;;;;;;;;;;;;;;16.03;55.17;96342.97;5107072;28;19963;-86
2023/06/02 00:51:50;;;;;;;;;;;;;;;16.00;55.64;96341.63;5106949;28;20128;-75
2023/06/02 00:54:16;;;;;;;;;;;;;;;16.01;54.83;96342.44;5105586;28;19971;-73
2023/06/02 00:56:43;;;;;;;;;;;;;;;15.97;54.25;96344.78;5106832;28;20162;-84
2023/06/02 00:59:10;;;;;;;;;;;;;;;15.94;53.68;96342.66;5106392;28;19949;-83
2023/06/02 01:01:36;;;;;;;;;;;;;;;15.89;54.66;96339.16;5071353;28;20160;-85
2023/06/02 01:04:01;;;;;;;;;;;;;;;15.82;54.58;96334.09;5106380;28;19953;-83
2023/06/02 01:06:36;;;;;;;;;;;;;;;15.78;54.52;96330.38;5106284;28;20085;-84
2023/06/02 01:09:04;;;;;;;;;;;;;;;15.73;54.60;96335.63;5106516;28;19949;-86
2023/06/02 01:11:30;;;;;;;;;;;;;;;15.69;54.87;96331.88;5106357;28;19972;-78
2023/06/02 01:13:56;;;;;;;;;;;;;;;15.63;54.89;96329.16;5106320;28;19953;-73
2023/06/02 01:16:22;;;;;;;;;;;;;;;15.59;54.43;96336.00;5106337;28;19997;-73
2023/06/02 01:18:49;;;;;;;;;;;;;;;15.57;54.27;96334.66;5106310;28;20261;-73
2023/06/02 01:21:23;;;;;;;;;;;;;;;15.51;53.83;96331.19;5106053;28;19968;-73
2023/06/02 01:23:53;;;;;;;;;;;;;;;15.47;55.23;96335.38;5106216;28;19961;-73
2023/06/02 01:26:19;;;;;;;;;;;;;;;15.40;54.83;96337.44;5105745;28;19957;-73
2023/06/02 01:28:45;;;;;;;;;;;;;;;15.34;55.46;96330.50;5105788;28;20255;-73
2023/06/02 01:31:15;;;;;;;;;;;;;;;15.27;56.27;96330.72;5105521;28;19957;-76
2023/06/02 01:33:45;;;;;;;;;;;;;;;15.22;57.17;96334.13;5105769;28;20123;-72
2023/06/02 01:36:12;;;;;;;;;;;;;;;15.21;54.84;96329.06;5087525;28;19962;-73
2023/06/02 01:38:39;;;;;;;;;;;;;;;15.18;55.46;96327.75;5105846;28;19958;-72
2023/06/02 01:41:06;;;;;;;;;;;;;;;15.18;55.30;96324.28;5105751;28;19956;-72
2023/06/02 01:43:33;;;;;;;;;;;;;;;15.14;56.31;96321.34;5105907;28;19959;-73
2023/06/02 01:45:59;;;;;;;;;;;;;;;15.13;55.11;96326.88;5105752;28;19950;-73
2023/06/02 01:48:27;;;;;;;;;;;;;;;15.12;56.45;96323.44;5105765;28;19970;-77
2023/06/02 01:50:53;;;;;;;;;;;;;;;15.11;56.52;96328.97;5105875;28;19954;-72
2023/06/02 01:53:20;;;;;;;;;;;;;;;15.10;56.56;96330.00;5105379;28;19960;-73
2023/06/02 01:55:47;;;;;;;;;;;;;;;15.11;56.27;96328.97;5105761;28;19956;-73
2023/06/02 01:58:13;;;;;;;;;;;;;;;15.08;56.98;96326.84;5105323;28;19959;-73
2023/06/02 02:00:39;;;;;;;;;;;;;;;15.09;58.10;96328.41;5105218;28;19953;-73
2023/06/02 02:03:04;;;;;;;;;;;;;;;15.08;57.22;96332.91;5105305;28;19954;-73
2023/06/02 02:05:30;;;;;;;;;;;;;;;15.08;57.22;96329.47;5087088;28;19955;-77
2023/06/02 02:07:57;;;;;;;;;;;;;;;15.03;58.00;96332.84;5105817;28;19954;-73
2023/06/02 02:10:23;;;;;;;;;;;;;;;15.02;57.80;96333.91;5105370;28;19946;-74
2023/06/02 02:12:49;;;;;;;;;;;;;;;15.01;57.63;96337.56;5105369;28;20000;-73
2023/06/02 02:15:15;;;;;;;;;;;;;;;15.00;56.98;96331.50;5105275;28;19957;-74
2023/06/02 02:17:47;;;;;;;;;;;;;;;14.96;57.50;96327.75;5105287;28;20249;-74
2023/06/02 02:20:17;;;;;;;;;;;;;;;14.95;58.62;96330.66;5104911;28;19947;-73
2023/06/02 02:22:43;;;;;;;;;;;;;;;14.88;57.81;96328.22;5104741;28;19962;-73
2023/06/02 02:25:09;;;;;;;;;;;;;;;14.82;58.46;96331.84;5105170;28;19961;-77
2023/06/02 02:27:35;;;;;;;;;;;;;;;14.76;58.43;96333.63;5105164;28;19961;-72
2023/06/02 02:30:03;;;;;;;;;;;;;;;14.69;58.73;96342.78;5105044;28;19973;-72
2023/06/02 02:32:30;;;;;;;;;;;;;;;14.63;58.56;96336.63;5104976;28;19960;-73
2023/06/02 02:34:56;;;;;;;;;;;;;;;14.56;59.58;96336.81;5105112;28;19949;-72
2023/06/02 02:37:22;;;;;;;;;;;;;;;14.51;59.45;96341.19;5105026;28;19955;-72
2023/06/02 02:39:48;;;;;;;;;;;;;;;14.45;59.23;96337.72;5105049;28;19956;-72
2023/06/02 02:42:14;;;;;;;;;;;;;;;14.38;59.55;96340.53;5104817;28;19965;-73
2023/06/02 02:44:40;;;;;;;;;;;;;;;14.33;60.18;96348.38;5104795;28;19937;-76
2023/06/02 02:47:05;;;;;;;;;;;;;;;14.27;58.77;96346.72;5104492;28;20140;-76
2023/06/02 02:49:31;;;;;;;;;;;;;;;14.20;60.34;96338.97;5104279;28;19955;-77
2023/06/02 02:51:57;;;;;;;;;;;;;;;14.14;60.78;96334.69;5105016;28;19954;-77
2023/06/02 02:54:24;;;;;;;;;;;;;;;14.13;60.14;96337.53;5104875;28;19958;-76
2023/06/02 02:56:51;;;;;;;;;;;;;;;14.10;61.78;96340.69;5104527;28;19960;-76
2023/06/02 02:59:16;;;;;;;;;;;;;;;14.06;60.63;96339.56;5086456;28;20029;-76
2023/06/02 03:01:46;;;;;;;;;;;;;;;14.01;61.86;96341.09;5104488;28;19962;-85
2023/06/02 03:04:18;;;;;;;;;;;;;;;14.02;61.94;96345.31;5087262;28;19966;-75
2023/06/02 03:06:45;;;;;;;;;;;;;;;14.01;63.08;96342.94;5104770;28;19952;-75
2023/06/02 03:09:11;;;;;;;;;;;;;;;13.99;62.12;96340.53;5086436;28;20124;-74
2023/06/02 03:11:37;;;;;;;;;;;;;;;13.98;61.90;96341.59;5087117;28;19949;-78
2023/06/02 03:14:03;;;;;;;;;;;;;;;13.98;62.31;96344.22;5104728;28;20018;-76
2023/06/02 03:16:29;;;;;;;;;;;;;;;14.01;61.60;96335.81;5104184;28;19953;-77
2023/06/02 03:18:56;;;;;;;;;;;;;;;14.08;60.58;96338.28;5107911;28;20143;-73
2023/06/02 03:21:22;;;;;;;;;;;;;;;14.05;61.71;96336.13;5090496;28;19984;-72
2023/06/02 03:23:49;;;;;;;;;;;;;;;14.00;60.34;96331.56;5108322;28;19965;-72
2023/06/02 03:26:15;;;;;;;;;;;;;;;13.93;60.24;96336.22;5108473;28;19957;-72
2023/06/02 03:28:42;;;;;;;;;;;;;;;13.88;60.07;96335.34;5073661;28;19958;-72
2023/06/02 03:31:09;;;;;;;;;;;;;;;13.81;61.62;96341.56;5073358;28;20138;-72
2023/06/02 03:33:35;;;;;;;;;;;;;;;13.76;61.14;96343.34;5108428;28;20145;-73
2023/06/02 03:36:01;;;;;;;;;;;;;;;13.73;60.77;96341.19;5089982;28;19981;-73
2023/06/02 03:38:27;;;;;;;;;;;;;;;13.71;61.33;96335.34;5109111;28;19956;-75
2023/06/02 03:40:52;;;;;;;;;;;;;;;13.69;61.09;96334.78;5107817;28;19945;-72
2023/06/02 03:43:18;;;;;;;;;;;;;;;13.65;61.62;96337.13;5108427;28;19971;-72
2023/06/02 03:45:45;;;;;;;;;;;;;;;13.64;62.11;96340.00;5107973;28;19958;-72
2023/06/02 03:48:11;;;;;;;;;;;;;;;13.60;62.85;96340.47;5108389;28;19979;-73
2023/06/02 03:50:38;;;;;;;;;;;;;;;13.60;62.73;96342.31;5107733;28;19962;-73
2023/06/02 03:53:05;;;;;;;;;;;;;;;13.59;63.07;96338.88;5108137;28;19946;-73
2023/06/02 03:55:31;;;;;;;;;;;;;;;13.56;63.31;96341.97;5107772;28;19958;-77
2023/06/02 03:57:56;;;;;;;;;;;;;;;13.53;63.13;96339.03;5089374;28;20262;-85
2023/06/02 04:00:22;;;;;;;;;;;;;;;13.50;62.28;96342.97;5108021;28;19958;-75
2023/06/02 04:02:48;;;;;;;;;;;;;;;13.44;62.14;96343.09;5107685;28;20148;-76
2023/06/02 04:05:14;;;;;;;;;;;;;;;13.42;63.55;96337.25;5107844;28;19993;-76
2023/06/02 04:07:40;;;;;;;;;;;;;;;13.37;62.98;96346.66;5107706;28;19957;-77
2023/06/02 04:10:07;;;;;;;;;;;;;;;13.37;64.00;96359.84;5073126;28;20262;-76
2023/06/02 04:12:33;;;;;;;;;;;;;;;13.38;64.77;96352.75;5107917;28;19952;-76
2023/06/02 04:14:59;;;;;;;;;;;;;;;13.40;65.72;96354.13;5107285;28;19963;-85
2023/06/02 04:17:25;;;;;;;;;;;;;;;13.46;63.81;96362.09;5107629;28;20032;-73
2023/06/02 04:19:52;;;;;;;;;;;;;;;13.46;63.66;96355.00;5107161;28;19948;-73
2023/06/02 04:22:19;;;;;;;;;;;;;;;13.48;64.17;96366.09;5107501;28;19970;-73
2023/06/02 04:24:45;;;;;;;;;;;;;;;13.51;64.08;96360.34;5107177;28;19985;-73
2023/06/02 04:27:11;;;;;;;;;;;;;;;13.54;63.58;96362.53;5107506;28;19955;-73
2023/06/02 04:29:37;;;;;;;;;;;;;;;13.58;64.15;96360.97;5106054;28;19994;-73
2023/06/02 04:32:03;;;;;;;;;;;;;;;13.60;63.77;96364.19;5107139;28;20242;-73
2023/06/02 04:34:31;;;;;;;;;;;;;;;13.64;66.04;96372.41;5107244;28;20256;-76
2023/06/02 04:36:57;;;;;;;;;;;;;;;13.69;63.85;96369.06;5107205;28;19956;-73
2023/06/02 04:39:23;;;;;;;;;;;;;;;13.73;63.19;96372.81;5106697;28;20334;-73
2023/06/02 04:41:49;;;;;;;;;;;;;;;13.80;64.91;96366.34;5107053;28;19967;-73
2023/06/02 04:44:18;;;;;;;;;;;;;;;13.87;64.11;96376.72;5106698;28;19966;-73
2023/06/02 04:46:44;;;;;;;;;;;;;;;13.93;62.44;96372.34;5106641;28;19969;-73
2023/06/02 04:49:10;;;;;;;;;;;;;;;13.96;64.90;96380.56;5107107;28;19959;-73
2023/06/02 04:51:37;;;;;;;;;;;;;;;14.00;64.51;96375.59;5106723;28;19958;-73
2023/06/02 04:54:03;;;;;;;;;;;;;;;14.11;64.29;96381.81;5106587;28;20259;-83
2023/06/02 04:56:29;;;;;;;;;;;;;;;14.18;63.58;96377.19;5106956;28;20141;-83
2023/06/02 04:58:56;;;;;;;;;;;;;;;14.28;64.56;96377.34;5088562;28;20144;-83
2023/06/02 05:01:22;;;;;;;;;;;;;;;14.38;64.84;96382.75;5106651;28;20232;-84
2023/06/02 05:03:48;;;;;;;;;;;;;;;14.50;63.65;96384.47;5106652;28;19953;-83
2023/06/02 05:06:13;;;;;;;;;;;;;;;14.63;63.96;96388.63;5106627;28;20230;-84
2023/06/02 05:08:39;;;;;;;;;;;;;;;14.79;64.06;96383.28;5106070;28;20225;-84
2023/06/02 05:11:06;;;;;;;;;;;;;;;14.94;62.34;96384.53;5106861;28;19958;-74
2023/06/02 05:13:31;;;;;;;;;;;;;;;15.11;61.95;96387.06;5088689;28;19952;-76
2023/06/02 05:15:57;;;;;;;;;;;;;;;15.23;62.06;96391.19;5106424;28;20291;-76
2023/06/02 05:18:23;;;;;;;;;;;;;;;15.36;63.03;96391.81;5087812;28;20016;-75
2023/06/02 05:20:51;;;;;;;;;;;;;;;15.48;61.88;96378.47;5106459;28;19956;-76
2023/06/02 05:23:17;;;;;;;;;;;;;;;15.62;61.51;96383.09;5105999;28;19991;-76
2023/06/02 05:25:42;;;;;;;;;;;;;;;15.71;61.12;96387.94;5106085;28;19953;-75
2023/06/02 05:28:08;;;;;;;;;;;;;;;15.82;61.70;96384.34;5105779;28;19993;-86
2023/06/02 05:30:34;;;;;;;;;;;;;;;16.00;61.22;96383.13;5106222;28;19957;-75
2023/06/02 05:33:00;;;;;;;;;;;;;;;16.17;60.35;96378.50;5106048;28;19967;-77
2023/06/02 05:35:26;;;;;;;;;;;;;;;16.33;60.89;96381.25;5105986;28;19954;-77
2023/06/02 05:37:52;;;;;;;;;;;;;;;16.43;59.60;96379.44;5088153;28;19948;-77
2023/06/02 05:40:18;;;;;;;;;;;;;;;16.56;59.51;96374.75;5105985;28;20001;-79
2023/06/02 05:42:44;;;;;;;;;;;;;;;16.63;59.91;96376.13;5105826;28;19958;-78
2023/06/02 05:45:10;;;;;;;;;;;;;;;16.68;59.12;96375.34;5105563;28;19955;-77
2023/06/02 05:47:36;;;;;;;;;;;;;;;16.80;59.41;96383.91;5106048;28;19953;-85
2023/06/02 05:50:02;;;;;;;;;;;;;;;16.94;58.46;96375.47;5087274;28;19966;-78
2023/06/02 05:52:28;;;;;;;;;;;;;;;17.10;59.09;96379.75;5105508;28;19955;-78
2023/06/02 05:54:54;;;;;;;;;;;;;;;17.21;59.13;96378.72;5087526;28;19961;-78
2023/06/02 05:57:20;;;;;;;;;;;;;;;17.28;57.45;96377.66;5105114;28;19959;-78
2023/06/02 05:59:46;;;;;;;;;;;;;;;17.26;57.52;96375.31;5087452;28;19960;-77
2023/06/02 06:02:12;;;;;;;;;;;;;;;17.28;57.83;96375.81;5105548;28;19973;-79
2023/06/02 06:04:38;;;;;;;;;;;;;;;17.33;57.26;96380.34;5105552;28;19958;-78
2023/06/02 06:07:04;;;;;;;;;;;;;;;17.32;57.97;96386.69;5087178;28;20247;-73
2023/06/02 06:09:30;;;;;;;;;;;;;;;17.39;58.04;96392.56;5104916;28;20114;-72
2023/06/02 06:11:56;;;;;;;;;;;;;;;17.48;57.45;96393.63;5105617;28;19975;-72
2023/06/02 06:14:21;;;;;;;;;;;;;;;17.58;57.37;96388.34;5104968;28;20144;-73
2023/06/02 06:16:47;;;;;;;;;;;;;;;17.63;57.01;96392.84;5105303;28;19962;-73
2023/06/02 06:19:13;;;;;;;;;;;;;;;17.73;57.06;96392.84;5104985;28;19952;-73
2023/06/02 06:21:39;;;;;;;;;;;;;;;17.77;57.10;96393.91;5105085;28;19966;-73
2023/06/02 06:24:05;;;;;;;;;;;;;;;17.83;57.32;96394.75;5105048;28;19981;-87
2023/06/02 06:26:31;;;;;;;;;;;;;;;17.95;56.82;96408.53;5086916;28;19957;-87
2023/06/02 06:28:57;;;;;;;;;;;;;;;18.10;56.79;96405.09;5105075;28;20286;-86
2023/06/02 06:31:23;;;;;;;;;;;;;;;18.21;56.60;96403.22;5105120;28;19970;-87
2023/06/02 06:33:49;;;;;;;;;;;;;;;18.38;56.44;96403.72;5105128;28;20256;-85
2023/06/02 06:36:15;;;;;;;;;;;;;;;18.41;55.76;96400.50;5105158;28;19954;-89
2023/06/02 06:38:41;;;;;;;;;;;;;;;18.46;55.74;96399.72;5104569;28;19945;-89
2023/06/02 06:41:07;;;;;;;;;;;;;;;18.53;55.84;96402.09;5105068;28;19958;-88
2023/06/02 06:43:33;;;;;;;;;;;;;;;18.59;55.80;96407.13;5104924;28;19957;-73
2023/06/02 06:46:01;;;;;;;;;;;;;;;18.70;55.65;96407.09;5070070;28;19969;-76
2023/06/02 06:48:27;;;;;;;;;;;;;;;18.72;54.77;96403.09;5086481;28;19965;-76
2023/06/02 06:50:53;;;;;;;;;;;;;;;18.73;55.24;96410.00;5069684;28;19963;-75
2023/06/02 06:53:19;;;;;;;;;;;;;;;18.70;55.96;96413.19;5104178;28;19956;-76
2023/06/02 06:55:46;;;;;;;;;;;;;;;18.66;55.16;96412.13;5104597;28;20144;-75
2023/06/02 06:58:12;;;;;;;;;;;;;;;18.66;56.02;96409.50;5104650;28;19963;-75
2023/06/02 07:00:38;;;;;;;;;;;;;;;18.72;55.65;96416.38;5104842;28;19955;-73
2023/06/02 07:03:04;;;;;;;;;;;;;;;18.78;56.48;96417.97;5104644;28;19969;-73
2023/06/02 07:05:30;;;;;;;;;;;;;;;18.92;55.80;96414.72;5104629;28;19990;-73
2023/06/02 07:07:56;;;;;;;;;;;;;;;18.93;55.86;96416.34;5104116;28;19965;-73
2023/06/02 07:10:22;;;;;;;;;;;;;;;18.87;55.85;96415.56;5104634;28;19975;-73
2023/06/02 07:12:48;;;;;;;;;;;;;;;18.99;56.63;96417.91;5104258;28;19963;-74
2023/06/02 07:15:14;;;;;;;;;;;;;;;19.04;55.63;96410.69;5086281;28;19958;-73
2023/06/02 07:17:40;;;;;;;;;;;;;;;19.14;56.58;96417.06;5104220;28;19958;-74
2023/06/02 07:20:08;;;;;;;;;;;;;;;19.34;55.40;96416.13;5086352;28;19958;-72
2023/06/02 07:22:33;;;;;;;;;;;;;;;19.52;54.69;96420.03;5086170;28;20039;-72
2023/06/02 07:25:00;;;;;;;;;;;;;;;19.66;54.71;96421.81;5086115;28;20271;-72
2023/06/02 07:27:26;;;;;;;;;;;;;;;19.69;54.34;96415.13;5104354;28;20227;-72
2023/06/02 07:29:52;;;;;;;;;;;;;;;19.77;54.00;96413.78;5104336;28;19976;-72
2023/06/02 07:32:18;;;;;;;;;;;;;;;19.95;54.29;96410.44;5104278;28;19959;-73
2023/06/02 07:34:44;;;;;;;;;;;;;;;20.02;53.51;96412.78;5104039;28;19964;-73
2023/06/02 07:37:10;;;;;;;;;;;;;;;20.02;54.42;96412.78;5085734;28;19943;-77
2023/06/02 07:39:36;;;;;;;;;;;;;;;20.08;53.55;96417.00;5086359;28;20005;-73
2023/06/02 07:42:02;;;;;;;;;;;;;;;20.06;53.38;96414.59;5104132;28;19990;-73
2023/06/02 07:44:28;;;;;;;;;;;;;;;20.02;52.67;96413.56;5103925;28;19972;-73
2023/06/02 07:46:54;;;;;;;;;;;;;;;20.03;52.25;96409.84;5104401;28;19973;-73
2023/06/02 07:49:20;;;;;;;;;;;;;;;20.01;53.42;96411.19;5085768;28;19968;-73
2023/06/02 07:51:45;;;;;;;;;;;;;;;19.94;53.34;96411.50;5104039;28;19954;-73
2023/06/02 07:54:11;;;;;;;;;;;;;;;19.96;53.19;96414.69;5085983;28;19954;-73
2023/06/02 07:56:37;;;;;;;;;;;;;;;20.00;53.26;96407.75;5104038;28;19993;-77
2023/06/02 07:59:03;;;;;;;;;;;;;;;20.03;53.07;96409.03;5085840;28;19963;-78
2023/06/02 08:01:29;;;;;;;;;;;;;;;19.98;53.05;96414.41;5104216;28;19959;-78
2023/06/02 08:03:55;;;;;;;;;;;;;;;19.99;52.49;96416.00;5087089;28;19970;-77
2023/06/02 08:06:21;;;;;;;;;;;;;;;19.92;53.01;96418.97;5089169;28;20020;-79
2023/06/02 08:08:47;;;;;;;;;;;;;;;19.98;53.54;96417.88;5107237;28;19947;-78
2023/06/02 08:11:13;;;;;;;;;;;;;;;20.04;53.46;96418.63;5089781;28;19959;-77
2023/06/02 08:13:39;;;;;;;;;;;;;;;20.13;54.00;96419.59;5089598;28;19959;-72
2023/06/02 08:16:05;;;;;;;;;;;;;;;20.20;53.16;96419.28;5107208;28;20241;-73
2023/06/02 08:18:31;;;;;;;;;;;;;;;20.24;53.66;96422.97;5107536;28;19950;-72
2023/06/02 08:20:57;;;;;;;;;;;;;;;20.38;53.68;96423.13;5107119;28;20016;-73
2023/06/02 08:23:23;;;;;;;;;;;;;;;20.51;53.20;96419.00;5072145;28;19972;-73
2023/06/02 08:25:49;;;;;;;;;;;;;;;20.59;52.21;96421.06;5107459;28;19952;-72
2023/06/02 08:28:15;;;;;;;;;;;;;;;20.71;52.21;96413.50;5106853;28;19954;-72
2023/06/02 08:30:47;;;;;;;;;;;;;;;20.83;52.05;96408.56;5107340;28;19962;-72
2023/06/02 08:33:14;;;;;;;;;;;;;;;20.91;51.60;96411.66;5107181;28;19957;-78
2023/06/02 08:35:40;;;;;;;;;;;;;;;20.88;52.03;96411.16;5106642;28;19938;-78
2023/06/02 08:38:07;;;;;;;;;;;;;;;20.88;52.04;96411.16;5089437;28;20264;-78
2023/06/02 08:40:37;;;;;;;;;;;;;;;20.95;51.62;96400.13;5088971;28;19961;-78
2023/06/02 08:43:09;;;;;;;;;;;;;;;21.01;51.23;96396.34;5106249;28;19968;-80
2023/06/02 08:45:35;;;;;;;;;;;;;;;21.05;51.46;96399.22;5088664;28;20148;-77
2023/06/02 08:48:05;;;;;;;;;;;;;;;21.13;51.40;96400.47;5106053;28;19960;-77
2023/06/02 08:50:35;;;;;;;;;;;;;;;21.24;51.18;96397.38;5106469;28;19955;-73
2023/06/02 08:53:06;;;;;;;;;;;;;;;21.26;51.06;96397.09;5106626;28;20162;-75
2023/06/02 08:55:32;;;;;;;;;;;;;;;21.21;51.17;96397.97;5106636;28;19964;-74
2023/06/02 08:57:58;;;;;;;;;;;;;;;21.23;51.53;96400.31;5106497;28;19948;-73
2023/06/02 09:00:24;;;;;;;;;;;;;;;21.29;51.19;96405.31;5088541;28;19943;-74
2023/06/02 09:02:50;;;;;;;;;;;;;;;21.33;50.07;96396.72;5105847;28;19974;-73
2023/06/02 09:05:16;;;;;;;;;;;;;;;21.26;49.64;96400.53;5106346;28;19953;-74
2023/06/02 09:07:43;;;;;;;;;;;;;;;21.29;50.19;96408.00;5106002;28;19964;-74
2023/06/02 09:10:09;;;;;;;;;;;;;;;21.38;49.95;96402.78;5105898;28;20132;-75
2023/06/02 09:12:50;;;;;;;;;;;;;;;21.59;50.23;96400.66;5105863;28;19955;-73
2023/06/02 09:15:16;;;;;;;;;;;;;;;21.84;49.65;96396.81;5087550;28;19954;-83
2023/06/02 09:17:42;;;;;;;;;;;;;;;22.05;48.49;96396.47;5087955;28;19956;-89
2023/06/02 09:20:11;;;;;;;;;;;;;;;22.22;46.74;96391.38;5088076;28;19958;-75
2023/06/02 09:22:55;;;;;;;;;;;;;;;22.37;48.38;96393.00;5105954;28;20155;-81
2023/06/02 09:25:28;;;;;;;;;;;;;;;22.38;47.63;96394.59;5106058;28;19956;-82
2023/06/02 09:27:58;;;;;;;;;;;;;;;22.36;47.54;96398.63;5070695;28;19960;-82
2023/06/02 09:30:26;;;;;;;;;;;;;;;22.35;47.36;96394.41;5104989;28;21055;-71
2023/06/02 09:32:53;;;;;;;;;;;;;;;22.37;47.83;96392.22;5105718;28;19961;-74
2023/06/02 09:35:51;;;;;;;;;;;;;;;22.40;47.34;96392.41;5105692;28;19958;-73
2023/06/02 09:38:17;;;;;;;;;;;;;;;22.50;47.72;96394.91;5049803;28;20280;-73
2023/06/02 09:40:44;;;;;;;;;;;;;;;22.46;46.33;96393.13;5105643;28;19957;-74
2023/06/02 09:43:11;;;;;;;;;;;;;;;22.47;46.40;96392.81;5105545;28;19969;-73
2023/06/02 09:45:49;;;;;;;;;;;;;;;22.49;45.94;96396.00;5105882;28;19961;-74
2023/06/02 09:48:18;;;;;;;;;;;;;;;22.49;45.65;96398.66;5105188;28;20239;-70
2023/06/02 09:50:44;;;;;;;;;;;;;;;22.61;46.21;96400.06;5105079;28;19954;-73
2023/06/02 09:53:13;;;;;;;;;;;;;;;22.52;46.41;96404.50;5105194;28;19957;-74
2023/06/02 09:55:40;;;;;;;;;;;;;;;22.53;46.95;96412.22;5105365;28;19977;-74
2023/06/02 09:58:06;;;;;;;;;;;;;;;22.56;45.89;96395.59;5105153;28;19952;-74
2023/06/02 10:00:32;;;;;;;;;;;;;;;22.60;46.25;96399.28;5105240;28;20213;-74
2023/06/02 10:02:58;;;;;;;;;;;;;;;22.42;45.01;96394.78;5105041;28;19965;-74
2023/06/02 10:05:24;;;;;;;;;;;;;;;22.41;46.13;96404.69;5105284;28;20233;-74
2023/06/02 10:08:09;;;;;;;;;;;;;;;22.44;47.04;96408.66;5104653;28;19982;-75
2023/06/02 10:10:41;;;;;;;;;;;;;;;22.46;46.26;96401.91;5087034;28;19968;-74
2023/06/02 10:13:26;;;;;;;;;;;;;;;22.54;45.68;96403.13;5087020;28;19949;-74
2023/06/02 10:16:01;;;;;;;;;;;;;;;22.68;45.78;96398.59;5104877;28;19964;-72
2023/06/02 10:18:26;;;;;;;;;;;;;;;22.74;45.50;96393.13;5105130;28;19956;-74
2023/06/02 10:21:09;;;;;;;;;;;;;;;22.76;44.36;96396.28;5104908;28;19955;-74
2023/06/02 10:23:38;;;;;;;;;;;;;;;22.81;45.17;96399.66;5104939;28;19978;-88
2023/06/02 10:26:16;;;;;;;;;;;;;;;22.87;45.61;96392.34;5104878;28;19941;-75
2023/06/02 10:28:42;;;;;;;;;;;;;;;22.82;45.24;96392.44;5103762;28;20238;-73
2023/06/02 10:31:09;;;;;;;;;;;;;;;22.77;44.91;96393.34;5104689;28;19961;-74
2023/06/02 10:33:45;;;;;;;;;;;;;;;22.66;45.02;96395.41;5104465;28;19955;-73
2023/06/02 10:36:17;;;;;;;;;;;;;;;22.69;45.57;96391.34;5104503;28;19966;-75
2023/06/02 10:38:44;;;;;;;;;;;;;;;22.80;45.13;96392.72;5086387;28;19965;-76
2023/06/02 10:41:10;;;;;;;;;;;;;;;22.93;45.75;96385.81;5104661;28;20255;-72
2023/06/02 10:43:36;;;;;;;;;;;;;;;23.05;45.77;96388.78;5104711;28;20134;-74
2023/06/02 10:46:21;;;;;;;;;;;;;;;23.08;44.80;96385.50;5104579;28;19950;-74
2023/06/02 10:48:47;;;;;;;;;;;;;;;22.99;43.92;96383.81;5104584;28;19954;-73
2023/06/02 10:51:13;;;;;;;;;;;;;;;22.99;44.91;96392.59;5086543;28;19956;-74
2023/06/02 10:53:57;;;;;;;;;;;;;;;23.02;44.77;96383.25;5104112;28;19954;-75
2023/06/02 10:56:35;;;;;;;;;;;;;;;23.09;44.72;96386.28;5104592;28;20143;-76
2023/06/02 10:59:01;;;;;;;;;;;;;;;23.15;44.46;96381.63;5104607;28;19956;-74
2023/06/02 11:01:46;;;;;;;;;;;;;;;23.20;44.17;96390.31;5069566;28;19970;-74
2023/06/02 11:04:28;;;;;;;;;;;;;;;23.20;44.82;96386.88;5085923;28;19956;-76
2023/06/02 11:07:15;;;;;;;;;;;;;;;23.29;44.54;96382.41;5104482;28;19955;-76
2023/06/02 11:09:43;;;;;;;;;;;;;;;23.42;44.23;96388.81;5104153;28;19950;-76
2023/06/02 11:12:09;;;;;;;;;;;;;;;23.50;43.62;96386.22;5104458;28;19962;-77
2023/06/02 11:14:53;;;;;;;;;;;;;;;23.63;42.64;96386.47;5104202;28;20255;-76
2023/06/02 11:17:30;;;;;;;;;;;;;;;23.57;42.58;96390.34;5103753;28;20149;-84
2023/06/02 11:19:57;;;;;;;;;;;;;;;23.63;43.46;96391.81;5069261;28;19978;-74
2023/06/02 11:22:23;;;;;;;;;;;;;;;23.69;43.64;96386.03;5103913;28;19960;-85
2023/06/02 11:24:52;;;;;;;;;;;;;;;23.75;43.51;96386.72;5086410;28;19964;-86
2023/06/02 11:27:19;;;;;;;;;;;;;;;23.82;43.63;96378.28;5104493;28;19954;-86
2023/06/02 11:29:45;;;;;;;;;;;;;;;23.84;42.96;96374.19;5104147;28;20135;-89
2023/06/02 11:32:13;;;;;;;;;;;;;;;23.97;43.06;96379.78;5104242;28;19967;-86
2023/06/02 11:34:39;;;;;;;;;;;;;;;24.06;43.30;96377.94;5103976;28;19956;-80
2023/06/02 11:37:12;;;;;;;;;;;;;;;24.20;42.22;96381.34;5103824;28;19951;-79
2023/06/02 11:39:48;;;;;;;;;;;;;;;24.31;42.44;96376.50;5106648;28;20123;-72
2023/06/02 11:42:14;;;;;;;;;;;;;;;24.48;41.67;96365.88;5107997;28;19956;-72
2023/06/02 11:44:46;;;;;;;;;;;;;;;24.70;40.99;96361.56;5107812;28;19973;-72
2023/06/02 11:47:16;;;;;;;;;;;;;;;24.95;42.08;96373.47;5089929;28;19961;-71
2023/06/02 11:49:42;;;;;;;;;;;;;;;25.06;40.46;96366.69;5107479;28;19968;-72
2023/06/02 11:52:09;;;;;;;;;;;;;;;25.10;41.16;96364.97;5107735;28;19956;-74
2023/06/02 11:54:47;;;;;;;;;;;;;;;25.08;38.77;96366.41;5107446;28;20258;-76
2023/06/02 11:57:13;;;;;;;;;;;;;;;24.92;40.05;96358.78;5107816;28;19961;-76
2023/06/02 11:59:39;;;;;;;;;;;;;;;24.84;40.54;96356.88;5107461;28;19955;-76
2023/06/02 12:02:18;;;;;;;;;;;;;;;24.83;40.60;96363.34;5107660;28;19974;-78
2023/06/02 12:04:44;;;;;;;;;;;;;;;24.85;40.90;96354.97;5107584;28;20108;-77
2023/06/02 12:07:10;;;;;;;;;;;;;;;24.90;41.08;96361.00;5107481;28;20109;-77
2023/06/02 12:09:36;;;;;;;;;;;;;;;24.94;39.84;96357.69;5089069;28;20226;-75
2023/06/02 12:12:08;;;;;;;;;;;;;;;24.97;40.55;96357.84;5107657;28;20114;-71
2023/06/02 12:14:37;;;;;;;;;;;;;;;25.06;39.85;96358.66;5107059;28;20138;-82
2023/06/02 12:17:04;;;;;;;;;;;;;;;25.18;40.15;96351.88;5107053;28;19953;-72
2023/06/02 12:19:30;;;;;;;;;;;;;;;25.20;38.71;96355.88;5107029;28;19953;-73
2023/06/02 12:22:05;;;;;;;;;;;;;;;25.20;39.00;96347.81;5107246;28;19961;-73
2023/06/02 12:24:31;;;;;;;;;;;;;;;25.29;38.31;96353.19;5106696;28;19960;-73
2023/06/02 12:26:57;;;;;;;;;;;;;;;25.34;37.36;96341.50;5106898;28;19964;-73
2023/06/02 12:29:23;;;;;;;;;;;;;;;25.42;39.51;96349.53;5107154;28;19956;-73
2023/06/02 12:32:16;;;;;;;;;;;;;;;25.48;38.41;96347.50;5107054;28;19964;-75
2023/06/02 12:34:43;;;;;;;;;;;;;;;25.49;37.78;96347.19;5102127;28;20243;-77
2023/06/02 12:37:10;;;;;;;;;;;;;;;25.49;38.98;96347.19;5106634;28;19957;-77
2023/06/02 12:39:36;;;;;;;;;;;;;;;25.27;38.20;96352.72;5106589;28;19962;-77
2023/06/02 12:42:02;;;;;;;;;;;;;;;25.17;38.09;96345.72;5088578;28;20195;-77
2023/06/02 12:44:28;;;;;;;;;;;;;;;25.06;37.69;96347.91;5088101;28;19987;-79
2023/06/02 12:46:54;;;;;;;;;;;;;;;25.01;35.08;96347.25;5106489;28;20253;-79
2023/06/02 12:49:20;;;;;;;;;;;;;;;24.91;37.53;96348.38;5106475;28;19964;-74